Lamar, OK

6:16 PM CDT on July 22, 2014 (GMT -0500)
Emergency Operations Center (KOKHOLDE1) Elev 908 ft | 35.08 °N, 96.40 °W | Change Station

Current weather conditions updated 1 minute ago

Clear
Clear
91.2 °F
Feels Like 107 °F
N
0.0
Wind Variable Wind from South
Gusts 6.0 mph

Tomorrow is forecast to be Warmer than today.

Today
High -- | Low -- °F
--% Chance of Precip.
Yesterday
High -- | Low -- °F
Precip. -- in
6:26 AM 8:35 PM
Waning Crescent, 14% visible
Pressure 30.04 in
Visibility 10.0 miles
Clouds Few 3900 ft
Heat Index 107 °F
Dew Point 78 °F
Humidity 66%
Rainfall 0.00 in
Snow Depth Not available.
UV 3 out of 12
Pollen 3.60 out of 12
Air Quality Not available.
Flu Activity Not available.
METAR KMLC 222253Z AUTO 09003KT 10SM FEW039 32/24 A3006 RMK AO2 SLP170 T03170239

More Conditions Fewer Conditions

Pressure 30.04 in
Visibility 10.0 miles
Clouds Few 3900 ft
Heat Index 107 °F
Dew Point 78 °F
Humidity 66%
Rainfall 0.00 in
Snow Depth Not available.
UV 3 out of 12
Pollen 3.60 out of 12
Air Quality Not available.
Flu Activity Not available.
METAR KMLC 222253Z AUTO 09003KT 10SM FEW039 32/24 A3006 RMK AO2 SLP170 T03170239

More Conditions Fewer Conditions

10-Day Weather Forecast

Almanac

Astronomy

Jul. 22, 2014 Rise Set
Actual Time 6:26 AM CDT 8:35 PM CDT
Civil Twilight 5:57 AM CDT 9:03 PM CDT
Nautical Twilight 5:22 AM CDT 9:38 PM CDT
Astronomical Twilight 4:45 AM CDT 10:15 PM CDT
Moon 2:58 AM CDT 5:14 PM CDT
Length of Visible Light 15h 05m
Length of Day
14h 08m
Tomorrow will be 1m 23s shorter.
Waning Crescent, 14% of the Moon is Illuminated
Today
Waning Crescent
Jul 26
New
Aug 3
First Quarter
Aug 10
Full
Aug 17
Last Quarter

Today's Extremes

State Highs State Lows

Community

WunderPhotos

Upload Photos

1,736,391 photos uploaded!

Nearby

Snow Depth

Station Depth Elevation
No new snow has been reported.

Earthquake Activity

City Distance Mag. Time & Date
Spencer, Oklahoma 80 miles 2.7 4:56 PM CDT
2014-07-18
Guthrie, Oklahoma 86 miles 2.9 8:59 PM CDT
2014-07-17
Perry, Oklahoma 98 miles 2.8 8:37 PM CDT
2014-07-17
Caldwell, Kansas 167 miles 3.6 5:40 AM CDT
2014-07-17
Minimum magnitude displayed is 2.5.

Coastal Water Temperatures

Place Temperature
No Stations Reporting

Nearby Weather Stations

Station Location Temp. Heat Index Dew Point Humidity Wind Precip. Elev Updated Type
Emergency Operations Center, Holdenville, OK 91.2 °F 107 °F 78 °F 66% South  at  0.0 mph 0.00 in / hr 908 ft 6:15 PM CDT Normal
MesoWest MCALES , Crowder, OK 94 °F 90 °F - - North  at  - 0.00 in / hr 616 ft 4:15 PM CDT MADIS
RAWS CLEARVIEW OK, Okemah, OK 93 °F 105 °F 75 °F 57% East  at  1 mph 0.00 in / hr 979 ft 5:17 PM CDT MADIS
MesoWest NAVY , Savanna, OK 86 °F 83 °F - - North  at  - 0.00 in / hr 711 ft 4:05 PM CDT MADIS

Show More Stations Show Fewer Stations